sensor_id;sensor_type;location;lat;lon;timestamp;P1;durP1;ratioP1;P2;durP2;ratioP2
18983;SDS011;9626;52.552;13.436;2023-12-14T00:01:40;16.27;;;9.20;;
18983;SDS011;9626;52.552;13.436;2023-12-14T00:04:07;15.47;;;9.27;;
18983;SDS011;9626;52.552;13.436;2023-12-14T00:06:34;17.63;;;9.60;;
18983;SDS011;9626;52.552;13.436;2023-12-14T00:09:00;15.13;;;9.47;;
18983;SDS011;9626;52.552;13.436;2023-12-14T00:11:26;15.30;;;9.50;;
18983;SDS011;9626;52.552;13.436;2023-12-14T00:13:52;16.87;;;9.43;;
18983;SDS011;9626;52.552;13.436;2023-12-14T00:16:17;14.13;;;9.43;;
18983;SDS011;9626;52.552;13.436;2023-12-14T00:18:43;15.87;;;9.57;;
18983;SDS011;9626;52.552;13.436;2023-12-14T00:21:09;15.67;;;9.53;;
18983;SDS011;9626;52.552;13.436;2023-12-14T00:23:35;15.07;;;9.77;;
18983;SDS011;9626;52.552;13.436;2023-12-14T00:26:02;15.23;;;9.83;;
18983;SDS011;9626;52.552;13.436;2023-12-14T00:28:29;14.57;;;9.27;;
18983;SDS011;9626;52.552;13.436;2023-12-14T00:30:54;14.13;;;9.13;;
18983;SDS011;9626;52.552;13.436;2023-12-14T00:33:20;15.83;;;9.27;;
18983;SDS011;9626;52.552;13.436;2023-12-14T00:35:46;15.27;;;8.80;;
18983;SDS011;9626;52.552;13.436;2023-12-14T00:38:12;15.07;;;8.90;;
18983;SDS011;9626;52.552;13.436;2023-12-14T00:40:38;19.60;;;9.77;;
18983;SDS011;9626;52.552;13.436;2023-12-14T00:43:04;13.93;;;8.93;;
18983;SDS011;9626;52.552;13.436;2023-12-14T00:45:30;16.50;;;9.40;;
18983;SDS011;9626;52.552;13.436;2023-12-14T00:47:56;14.57;;;9.80;;
18983;SDS011;9626;52.552;13.436;2023-12-14T00:50:22;14.57;;;8.33;;
18983;SDS011;9626;52.552;13.436;2023-12-14T00:52:48;15.60;;;8.73;;
18983;SDS011;9626;52.552;13.436;2023-12-14T00:55:14;13.43;;;8.83;;
18983;SDS011;9626;52.552;13.436;2023-12-14T00:57:40;11.97;;;8.07;;
18983;SDS011;9626;52.552;13.436;2023-12-14T01:00:06;14.50;;;8.40;;
18983;SDS011;9626;52.552;13.436;2023-12-14T01:02:32;14.37;;;8.30;;
18983;SDS011;9626;52.552;13.436;2023-12-14T01:04:58;11.87;;;7.87;;
18983;SDS011;9626;52.552;13.436;2023-12-14T01:07:24;14.60;;;8.40;;
18983;SDS011;9626;52.552;13.436;2023-12-14T01:09:50;13.50;;;8.10;;
18983;SDS011;9626;52.552;13.436;2023-12-14T01:12:16;13.73;;;7.67;;
18983;SDS011;9626;52.552;13.436;2023-12-14T01:14:42;13.23;;;7.97;;
18983;SDS011;9626;52.552;13.436;2023-12-14T01:17:08;13.40;;;7.83;;
18983;SDS011;9626;52.552;13.436;2023-12-14T01:19:34;14.40;;;7.63;;
18983;SDS011;9626;52.552;13.436;2023-12-14T01:22:00;9.33;;;6.60;;
18983;SDS011;9626;52.552;13.436;2023-12-14T01:24:26;12.63;;;7.40;;
18983;SDS011;9626;52.552;13.436;2023-12-14T01:26:52;11.07;;;6.93;;
18983;SDS011;9626;52.552;13.436;2023-12-14T01:29:18;10.50;;;6.20;;
18983;SDS011;9626;52.552;13.436;2023-12-14T01:31:44;9.27;;;6.47;;
18983;SDS011;9626;52.552;13.436;2023-12-14T01:34:10;10.90;;;6.10;;
18983;SDS011;9626;52.552;13.436;2023-12-14T01:36:38;10.67;;;6.07;;
18983;SDS011;9626;52.552;13.436;2023-12-14T01:39:04;10.17;;;6.20;;
18983;SDS011;9626;52.552;13.436;2023-12-14T01:41:31;8.10;;;5.23;;
18983;SDS011;9626;52.552;13.436;2023-12-14T01:43:57;11.77;;;6.07;;
18983;SDS011;9626;52.552;13.436;2023-12-14T01:46:23;9.83;;;5.90;;
18983;SDS011;9626;52.552;13.436;2023-12-14T01:48:48;9.63;;;6.03;;
18983;SDS011;9626;52.552;13.436;2023-12-14T01:51:14;9.73;;;5.60;;
18983;SDS011;9626;52.552;13.436;2023-12-14T01:53:40;10.63;;;5.93;;
18983;SDS011;9626;52.552;13.436;2023-12-14T01:56:07;9.33;;;5.97;;
18983;SDS011;9626;52.552;13.436;2023-12-14T01:58:33;10.17;;;5.93;;
18983;SDS011;9626;52.552;13.436;2023-12-14T02:01:07;9.77;;;5.50;;
18983;SDS011;9626;52.552;13.436;2023-12-14T02:03:48;9.27;;;5.20;;
18983;SDS011;9626;52.552;13.436;2023-12-14T02:06:16;8.60;;;5.40;;
18983;SDS011;9626;52.552;13.436;2023-12-14T02:08:42;8.43;;;5.40;;
18983;SDS011;9626;52.552;13.436;2023-12-14T02:11:08;8.83;;;5.33;;
18983;SDS011;9626;52.552;13.436;2023-12-14T02:13:34;8.13;;;5.27;;
18983;SDS011;9626;52.552;13.436;2023-12-14T02:16:00;10.33;;;5.50;;
18983;SDS011;9626;52.552;13.436;2023-12-14T02:18:26;10.87;;;5.53;;
18983;SDS011;9626;52.552;13.436;2023-12-14T02:20:52;8.47;;;5.63;;
18983;SDS011;9626;52.552;13.436;2023-12-14T02:23:18;9.13;;;5.47;;
18983;SDS011;9626;52.552;13.436;2023-12-14T02:25:44;8.83;;;5.60;;
18983;SDS011;9626;52.552;13.436;2023-12-14T02:28:10;8.60;;;5.47;;
18983;SDS011;9626;52.552;13.436;2023-12-14T02:30:36;10.07;;;6.10;;
18983;SDS011;9626;52.552;13.436;2023-12-14T02:33:02;9.83;;;6.40;;
18983;SDS011;9626;52.552;13.436;2023-12-14T02:35:28;9.37;;;5.90;;
18983;SDS011;9626;52.552;13.436;2023-12-14T02:37:54;9.37;;;6.10;;
18983;SDS011;9626;52.552;13.436;2023-12-14T02:40:20;9.87;;;6.50;;
18983;SDS011;9626;52.552;13.436;2023-12-14T02:42:46;9.13;;;5.83;;
18983;SDS011;9626;52.552;13.436;2023-12-14T02:45:12;8.37;;;5.90;;
18983;SDS011;9626;52.552;13.436;2023-12-14T02:47:39;8.53;;;6.13;;
18983;SDS011;9626;52.552;13.436;2023-12-14T02:50:05;12.47;;;6.30;;
18983;SDS011;9626;52.552;13.436;2023-12-14T02:52:31;9.50;;;6.33;;
18983;SDS011;9626;52.552;13.436;2023-12-14T02:54:57;9.20;;;6.10;;
18983;SDS011;9626;52.552;13.436;2023-12-14T02:57:23;10.73;;;6.27;;
18983;SDS011;9626;52.552;13.436;2023-12-14T02:59:49;10.57;;;6.27;;
18983;SDS011;9626;52.552;13.436;2023-12-14T03:02:16;9.07;;;6.00;;
18983;SDS011;9626;52.552;13.436;2023-12-14T03:04:42;9.80;;;6.27;;
18983;SDS011;9626;52.552;13.436;2023-12-14T03:07:08;10.13;;;6.20;;
18983;SDS011;9626;52.552;13.436;2023-12-14T03:09:34;12.20;;;5.40;;
18983;SDS011;9626;52.552;13.436;2023-12-14T03:12:00;9.53;;;6.80;;
18983;SDS011;9626;52.552;13.436;2023-12-14T03:14:31;9.80;;;6.53;;
18983;SDS011;9626;52.552;13.436;2023-12-14T03:16:58;9.80;;;6.33;;
18983;SDS011;9626;52.552;13.436;2023-12-14T03:19:24;9.40;;;5.70;;
18983;SDS011;9626;52.552;13.436;2023-12-14T03:21:50;10.00;;;6.63;;
18983;SDS011;9626;52.552;13.436;2023-12-14T03:24:15;8.23;;;5.97;;
18983;SDS011;9626;52.552;13.436;2023-12-14T03:26:42;7.90;;;5.70;;
18983;SDS011;9626;52.552;13.436;2023-12-14T03:29:08;9.13;;;6.03;;
18983;SDS011;9626;52.552;13.436;2023-12-14T03:31:34;11.63;;;6.17;;
18983;SDS011;9626;52.552;13.436;2023-12-14T03:34:01;8.73;;;5.70;;
18983;SDS011;9626;52.552;13.436;2023-12-14T03:36:28;9.87;;;5.97;;
18983;SDS011;9626;52.552;13.436;2023-12-14T03:38:54;8.47;;;5.80;;
18983;SDS011;9626;52.552;13.436;2023-12-14T03:41:20;10.33;;;5.87;;
18983;SDS011;9626;52.552;13.436;2023-12-14T03:43:46;8.17;;;5.30;;
18983;SDS011;9626;52.552;13.436;2023-12-14T03:46:12;7.43;;;4.90;;
18983;SDS011;9626;52.552;13.436;2023-12-14T03:48:38;8.53;;;5.50;;
18983;SDS011;9626;52.552;13.436;2023-12-14T03:51:04;8.87;;;5.23;;
18983;SDS011;9626;52.552;13.436;2023-12-14T03:53:30;6.43;;;4.67;;
18983;SDS011;9626;52.552;13.436;2023-12-14T03:56:00;8.70;;;5.40;;
18983;SDS011;9626;52.552;13.436;2023-12-14T03:58:26;7.57;;;4.67;;
18983;SDS011;9626;52.552;13.436;2023-12-14T04:00:52;6.83;;;4.53;;
18983;SDS011;9626;52.552;13.436;2023-12-14T04:03:18;8.00;;;4.97;;
18983;SDS011;9626;52.552;13.436;2023-12-14T04:05:44;7.67;;;4.90;;
18983;SDS011;9626;52.552;13.436;2023-12-14T04:08:10;9.67;;;5.30;;
18983;SDS011;9626;52.552;13.436;2023-12-14T04:10:36;11.23;;;4.67;;
18983;SDS011;9626;52.552;13.436;2023-12-14T04:13:02;7.63;;;4.40;;
18983;SDS011;9626;52.552;13.436;2023-12-14T04:15:28;7.63;;;5.07;;
18983;SDS011;9626;52.552;13.436;2023-12-14T04:17:54;8.93;;;5.13;;
18983;SDS011;9626;52.552;13.436;2023-12-14T04:20:20;6.97;;;4.70;;
18983;SDS011;9626;52.552;13.436;2023-12-14T04:22:47;6.93;;;5.10;;
18983;SDS011;9626;52.552;13.436;2023-12-14T04:25:13;8.70;;;5.73;;
18983;SDS011;9626;52.552;13.436;2023-12-14T04:27:39;7.93;;;5.40;;
18983;SDS011;9626;52.552;13.436;2023-12-14T04:30:06;7.70;;;4.97;;
18983;SDS011;9626;52.552;13.436;2023-12-14T04:32:39;6.37;;;4.63;;
18983;SDS011;9626;52.552;13.436;2023-12-14T04:35:05;9.17;;;5.77;;
18983;SDS011;9626;52.552;13.436;2023-12-14T04:37:32;7.93;;;5.33;;
18983;SDS011;9626;52.552;13.436;2023-12-14T04:39:58;7.47;;;4.43;;
18983;SDS011;9626;52.552;13.436;2023-12-14T04:42:24;7.47;;;5.00;;
18983;SDS011;9626;52.552;13.436;2023-12-14T04:44:50;8.73;;;5.80;;
18983;SDS011;9626;52.552;13.436;2023-12-14T04:47:16;7.77;;;5.10;;
18983;SDS011;9626;52.552;13.436;2023-12-14T04:49:42;7.73;;;5.10;;
18983;SDS011;9626;52.552;13.436;2023-12-14T04:52:08;6.97;;;5.60;;
18983;SDS011;9626;52.552;13.436;2023-12-14T04:54:34;7.87;;;5.10;;
18983;SDS011;9626;52.552;13.436;2023-12-14T04:57:03;7.70;;;5.70;;
18983;SDS011;9626;52.552;13.436;2023-12-14T04:59:29;10.53;;;5.90;;
18983;SDS011;9626;52.552;13.436;2023-12-14T05:01:55;8.80;;;5.70;;
18983;SDS011;9626;52.552;13.436;2023-12-14T05:04:21;8.93;;;5.83;;
18983;SDS011;9626;52.552;13.436;2023-12-14T05:06:47;8.00;;;5.47;;
18983;SDS011;9626;52.552;13.436;2023-12-14T05:09:13;8.47;;;6.23;;
18983;SDS011;9626;52.552;13.436;2023-12-14T05:11:39;7.13;;;5.80;;
18983;SDS011;9626;52.552;13.436;2023-12-14T05:14:06;10.93;;;6.10;;
18983;SDS011;9626;52.552;13.436;2023-12-14T05:16:32;9.17;;;6.33;;
18983;SDS011;9626;52.552;13.436;2023-12-14T05:18:58;10.20;;;6.43;;
18983;SDS011;9626;52.552;13.436;2023-12-14T05:21:24;9.60;;;6.40;;
18983;SDS011;9626;52.552;13.436;2023-12-14T05:23:50;10.83;;;6.67;;
18983;SDS011;9626;52.552;13.436;2023-12-14T05:26:16;10.27;;;6.57;;
18983;SDS011;9626;52.552;13.436;2023-12-14T05:28:42;9.17;;;6.53;;
18983;SDS011;9626;52.552;13.436;2023-12-14T05:31:09;8.97;;;5.97;;
18983;SDS011;9626;52.552;13.436;2023-12-14T05:33:38;8.90;;;6.40;;
18983;SDS011;9626;52.552;13.436;2023-12-14T05:36:05;7.30;;;6.17;;
18983;SDS011;9626;52.552;13.436;2023-12-14T05:38:38;8.47;;;6.17;;
18983;SDS011;9626;52.552;13.436;2023-12-14T05:41:04;9.33;;;6.10;;
18983;SDS011;9626;52.552;13.436;2023-12-14T05:43:30;9.87;;;6.13;;
18983;SDS011;9626;52.552;13.436;2023-12-14T05:45:56;6.97;;;6.00;;
18983;SDS011;9626;52.552;13.436;2023-12-14T05:48:22;8.17;;;5.80;;
18983;SDS011;9626;52.552;13.436;2023-12-14T05:50:51;8.97;;;6.50;;
18983;SDS011;9626;52.552;13.436;2023-12-14T05:53:21;7.60;;;6.53;;
18983;SDS011;9626;52.552;13.436;2023-12-14T05:55:47;8.83;;;5.63;;
18983;SDS011;9626;52.552;13.436;2023-12-14T05:58:13;7.33;;;5.60;;
18983;SDS011;9626;52.552;13.436;2023-12-14T06:00:39;7.80;;;5.27;;
18983;SDS011;9626;52.552;13.436;2023-12-14T06:03:05;8.13;;;5.77;;
18983;SDS011;9626;52.552;13.436;2023-12-14T06:05:31;7.50;;;5.60;;
18983;SDS011;9626;52.552;13.436;2023-12-14T06:07:58;7.97;;;6.10;;
18983;SDS011;9626;52.552;13.436;2023-12-14T06:10:24;8.57;;;5.90;;
18983;SDS011;9626;52.552;13.436;2023-12-14T06:12:49;7.67;;;5.90;;
18983;SDS011;9626;52.552;13.436;2023-12-14T06:15:15;8.90;;;5.53;;
18983;SDS011;9626;52.552;13.436;2023-12-14T06:17:41;7.43;;;6.13;;
18983;SDS011;9626;52.552;13.436;2023-12-14T06:20:08;6.83;;;5.97;;
18983;SDS011;9626;52.552;13.436;2023-12-14T06:22:37;7.23;;;5.70;;
18983;SDS011;9626;52.552;13.436;2023-12-14T06:25:03;7.20;;;5.60;;
18983;SDS011;9626;52.552;13.436;2023-12-14T06:27:30;7.37;;;6.10;;
18983;SDS011;9626;52.552;13.436;2023-12-14T06:29:56;8.50;;;5.77;;
18983;SDS011;9626;52.552;13.436;2023-12-14T06:32:22;8.70;;;5.80;;
18983;SDS011;9626;52.552;13.436;2023-12-14T06:34:48;6.40;;;5.23;;
18983;SDS011;9626;52.552;13.436;2023-12-14T06:37:14;6.57;;;5.40;;
18983;SDS011;9626;52.552;13.436;2023-12-14T06:39:40;7.77;;;5.57;;
18983;SDS011;9626;52.552;13.436;2023-12-14T06:42:07;6.30;;;4.90;;
18983;SDS011;9626;52.552;13.436;2023-12-14T06:44:33;8.03;;;5.23;;
18983;SDS011;9626;52.552;13.436;2023-12-14T06:46:59;10.53;;;5.77;;
18983;SDS011;9626;52.552;13.436;2023-12-14T06:49:25;8.67;;;5.97;;
18983;SDS011;9626;52.552;13.436;2023-12-14T06:51:51;8.33;;;5.83;;
18983;SDS011;9626;52.552;13.436;2023-12-14T06:54:17;8.10;;;5.70;;
18983;SDS011;9626;52.552;13.436;2023-12-14T06:56:43;8.37;;;5.30;;
18983;SDS011;9626;52.552;13.436;2023-12-14T06:59:09;6.60;;;5.33;;
18983;SDS011;9626;52.552;13.436;2023-12-14T07:01:35;8.40;;;5.70;;
18983;SDS011;9626;52.552;13.436;2023-12-14T07:04:01;8.13;;;5.50;;
18983;SDS011;9626;52.552;13.436;2023-12-14T07:06:30;8.63;;;6.07;;
18983;SDS011;9626;52.552;13.436;2023-12-14T07:08:56;6.60;;;5.73;;
18983;SDS011;9626;52.552;13.436;2023-12-14T07:11:22;9.37;;;5.90;;
18983;SDS011;9626;52.552;13.436;2023-12-14T07:13:48;13.13;;;6.20;;
18983;SDS011;9626;52.552;13.436;2023-12-14T07:16:14;6.93;;;6.03;;
18983;SDS011;9626;52.552;13.436;2023-12-14T07:18:41;9.37;;;6.17;;
18983;SDS011;9626;52.552;13.436;2023-12-14T07:21:07;8.97;;;6.57;;
18983;SDS011;9626;52.552;13.436;2023-12-14T07:23:34;9.13;;;6.03;;
18983;SDS011;9626;52.552;13.436;2023-12-14T07:26:01;7.13;;;5.83;;
18983;SDS011;9626;52.552;13.436;2023-12-14T07:28:27;8.70;;;6.20;;
18983;SDS011;9626;52.552;13.436;2023-12-14T07:30:54;7.17;;;5.67;;
18983;SDS011;9626;52.552;13.436;2023-12-14T07:33:20;7.53;;;6.07;;
18983;SDS011;9626;52.552;13.436;2023-12-14T07:35:46;8.97;;;7.17;;
18983;SDS011;9626;52.552;13.436;2023-12-14T07:38:12;9.37;;;6.83;;
18983;SDS011;9626;52.552;13.436;2023-12-14T07:40:39;9.90;;;6.87;;
18983;SDS011;9626;52.552;13.436;2023-12-14T07:43:06;10.37;;;7.10;;
18983;SDS011;9626;52.552;13.436;2023-12-14T07:45:33;10.70;;;7.63;;
18983;SDS011;9626;52.552;13.436;2023-12-14T07:47:59;11.13;;;8.47;;
18983;SDS011;9626;52.552;13.436;2023-12-14T07:50:26;13.43;;;9.30;;
18983;SDS011;9626;52.552;13.436;2023-12-14T07:52:55;12.20;;;8.20;;
18983;SDS011;9626;52.552;13.436;2023-12-14T07:55:21;10.27;;;7.63;;
18983;SDS011;9626;52.552;13.436;2023-12-14T07:57:48;11.50;;;8.07;;
18983;SDS011;9626;52.552;13.436;2023-12-14T08:00:15;10.93;;;7.10;;
18983;SDS011;9626;52.552;13.436;2023-12-14T08:02:44;10.93;;;8.20;;
18983;SDS011;9626;52.552;13.436;2023-12-14T08:05:10;10.73;;;8.00;;
18983;SDS011;9626;52.552;13.436;2023-12-14T08:07:36;13.60;;;8.40;;
18983;SDS011;9626;52.552;13.436;2023-12-14T08:10:02;10.90;;;7.73;;
18983;SDS011;9626;52.552;13.436;2023-12-14T08:12:28;9.30;;;8.23;;
18983;SDS011;9626;52.552;13.436;2023-12-14T08:14:54;10.60;;;7.70;;
18983;SDS011;9626;52.552;13.436;2023-12-14T08:17:20;11.27;;;7.97;;
18983;SDS011;9626;52.552;13.436;2023-12-14T08:19:46;13.97;;;8.13;;
18983;SDS011;9626;52.552;13.436;2023-12-14T08:22:12;10.63;;;8.30;;
18983;SDS011;9626;52.552;13.436;2023-12-14T08:24:41;11.30;;;7.60;;
18983;SDS011;9626;52.552;13.436;2023-12-14T08:27:07;11.47;;;8.17;;
18983;SDS011;9626;52.552;13.436;2023-12-14T08:29:33;8.83;;;7.50;;
18983;SDS011;9626;52.552;13.436;2023-12-14T08:31:59;11.53;;;7.67;;
18983;SDS011;9626;52.552;13.436;2023-12-14T08:34:26;10.87;;;8.57;;
18983;SDS011;9626;52.552;13.436;2023-12-14T08:36:53;9.70;;;7.87;;
18983;SDS011;9626;52.552;13.436;2023-12-14T08:39:19;11.07;;;7.27;;
18983;SDS011;9626;52.552;13.436;2023-12-14T08:41:46;11.23;;;7.77;;
18983;SDS011;9626;52.552;13.436;2023-12-14T08:44:13;10.93;;;8.47;;
18983;SDS011;9626;52.552;13.436;2023-12-14T08:46:44;10.70;;;8.23;;
18983;SDS011;9626;52.552;13.436;2023-12-14T08:49:11;10.93;;;8.33;;
18983;SDS011;9626;52.552;13.436;2023-12-14T08:51:39;11.93;;;8.53;;
18983;SDS011;9626;52.552;13.436;2023-12-14T08:54:05;12.00;;;8.20;;
18983;SDS011;9626;52.552;13.436;2023-12-14T08:56:32;11.17;;;8.50;;
18983;SDS011;9626;52.552;13.436;2023-12-14T08:58:58;14.87;;;9.20;;
18983;SDS011;9626;52.552;13.436;2023-12-14T09:01:24;13.37;;;8.93;;
18983;SDS011;9626;52.552;13.436;2023-12-14T09:03:50;14.33;;;9.33;;
18983;SDS011;9626;52.552;13.436;2023-12-14T09:06:17;13.33;;;8.57;;
18983;SDS011;9626;52.552;13.436;2023-12-14T09:08:43;13.37;;;9.77;;
18983;SDS011;9626;52.552;13.436;2023-12-14T09:11:10;12.57;;;9.30;;
18983;SDS011;9626;52.552;13.436;2023-12-14T09:13:37;13.87;;;9.80;;
18983;SDS011;9626;52.552;13.436;2023-12-14T09:16:03;13.60;;;9.13;;
18983;SDS011;9626;52.552;13.436;2023-12-14T09:18:29;12.83;;;9.47;;
18983;SDS011;9626;52.552;13.436;2023-12-14T09:20:56;12.80;;;9.13;;
18983;SDS011;9626;52.552;13.436;2023-12-14T09:23:22;11.67;;;9.10;;
18983;SDS011;9626;52.552;13.436;2023-12-14T09:25:48;12.30;;;9.13;;
18983;SDS011;9626;52.552;13.436;2023-12-14T09:28:15;10.93;;;8.57;;
18983;SDS011;9626;52.552;13.436;2023-12-14T09:30:41;14.10;;;8.90;;
18983;SDS011;9626;52.552;13.436;2023-12-14T09:33:07;11.50;;;8.57;;
18983;SDS011;9626;52.552;13.436;2023-12-14T09:35:34;14.10;;;9.50;;
18983;SDS011;9626;52.552;13.436;2023-12-14T09:38:02;12.27;;;8.83;;
18983;SDS011;9626;52.552;13.436;2023-12-14T09:40:30;11.33;;;8.57;;
18983;SDS011;9626;52.552;13.436;2023-12-14T09:42:56;12.20;;;8.73;;
18983;SDS011;9626;52.552;13.436;2023-12-14T09:45:29;10.67;;;8.33;;
18983;SDS011;9626;52.552;13.436;2023-12-14T09:47:59;11.87;;;7.80;;
18983;SDS011;9626;52.552;13.436;2023-12-14T09:50:26;11.03;;;8.27;;
18983;SDS011;9626;52.552;13.436;2023-12-14T09:52:52;13.67;;;8.87;;
18983;SDS011;9626;52.552;13.436;2023-12-14T09:55:18;11.80;;;8.50;;
18983;SDS011;9626;52.552;13.436;2023-12-14T09:57:44;14.10;;;8.70;;
18983;SDS011;9626;52.552;13.436;2023-12-14T10:00:11;10.53;;;8.30;;
18983;SDS011;9626;52.552;13.436;2023-12-14T10:02:39;13.23;;;9.20;;
18983;SDS011;9626;52.552;13.436;2023-12-14T10:05:08;11.77;;;8.63;;
18983;SDS011;9626;52.552;13.436;2023-12-14T10:07:40;12.53;;;8.73;;
18983;SDS011;9626;52.552;13.436;2023-12-14T10:10:12;12.70;;;9.60;;
18983;SDS011;9626;52.552;13.436;2023-12-14T10:12:55;11.93;;;8.83;;
18983;SDS011;9626;52.552;13.436;2023-12-14T10:15:21;13.30;;;9.47;;
18983;SDS011;9626;52.552;13.436;2023-12-14T10:17:53;17.40;;;9.70;;
18983;SDS011;9626;52.552;13.436;2023-12-14T10:20:20;13.87;;;10.07;;
18983;SDS011;9626;52.552;13.436;2023-12-14T10:22:52;14.97;;;10.00;;
18983;SDS011;9626;52.552;13.436;2023-12-14T10:25:18;14.33;;;9.37;;
18983;SDS011;9626;52.552;13.436;2023-12-14T10:27:50;13.57;;;9.63;;
18983;SDS011;9626;52.552;13.436;2023-12-14T10:30:18;14.70;;;10.03;;
18983;SDS011;9626;52.552;13.436;2023-12-14T10:32:48;14.07;;;9.37;;
18983;SDS011;9626;52.552;13.436;2023-12-14T10:35:15;13.90;;;10.23;;
18983;SDS011;9626;52.552;13.436;2023-12-14T10:37:42;14.60;;;10.53;;
18983;SDS011;9626;52.552;13.436;2023-12-14T10:40:09;13.60;;;9.67;;
18983;SDS011;9626;52.552;13.436;2023-12-14T10:42:38;15.70;;;9.37;;
18983;SDS011;9626;52.552;13.436;2023-12-14T10:45:10;11.90;;;9.03;;
18983;SDS011;9626;52.552;13.436;2023-12-14T10:47:39;15.13;;;9.90;;
18983;SDS011;9626;52.552;13.436;2023-12-14T10:50:08;13.70;;;8.80;;
18983;SDS011;9626;52.552;13.436;2023-12-14T10:52:37;12.33;;;9.17;;
18983;SDS011;9626;52.552;13.436;2023-12-14T10:55:11;14.77;;;9.53;;
18983;SDS011;9626;52.552;13.436;2023-12-14T10:57:44;17.17;;;9.50;;
18983;SDS011;9626;52.552;13.436;2023-12-14T11:00:11;12.67;;;9.10;;
18983;SDS011;9626;52.552;13.436;2023-12-14T11:02:41;14.60;;;9.20;;
18983;SDS011;9626;52.552;13.436;2023-12-14T11:05:15;13.83;;;9.43;;
18983;SDS011;9626;52.552;13.436;2023-12-14T11:07:52;15.40;;;9.33;;
18983;SDS011;9626;52.552;13.436;2023-12-14T11:10:26;13.23;;;8.33;;
18983;SDS011;9626;52.552;13.436;2023-12-14T11:12:57;15.60;;;8.87;;
18983;SDS011;9626;52.552;13.436;2023-12-14T11:15:27;13.30;;;8.93;;
18983;SDS011;9626;52.552;13.436;2023-12-14T11:25:51;12.20;;;9.27;;
18983;SDS011;9626;52.552;13.436;2023-12-14T11:28:19;11.67;;;8.57;;
18983;SDS011;9626;52.552;13.436;2023-12-14T11:30:46;12.67;;;9.43;;
18983;SDS011;9626;52.552;13.436;2023-12-14T11:33:12;12.90;;;9.17;;
18983;SDS011;9626;52.552;13.436;2023-12-14T11:35:40;13.40;;;8.87;;
18983;SDS011;9626;52.552;13.436;2023-12-14T11:38:06;15.87;;;9.80;;
18983;SDS011;9626;52.552;13.436;2023-12-14T11:40:42;14.20;;;9.27;;
18983;SDS011;9626;52.552;13.436;2023-12-14T11:43:08;15.17;;;9.47;;
18983;SDS011;9626;52.552;13.436;2023-12-14T11:45:35;15.93;;;9.60;;
18983;SDS011;9626;52.552;13.436;2023-12-14T11:48:06;13.53;;;9.37;;
18983;SDS011;9626;52.552;13.436;2023-12-14T11:50:36;11.20;;;8.77;;
18983;SDS011;9626;52.552;13.436;2023-12-14T11:53:03;13.70;;;9.60;;
18983;SDS011;9626;52.552;13.436;2023-12-14T11:55:39;12.57;;;9.80;;
18983;SDS011;9626;52.552;13.436;2023-12-14T11:58:07;15.80;;;12.33;;
18983;SDS011;9626;52.552;13.436;2023-12-14T12:00:34;18.30;;;14.87;;
18983;SDS011;9626;52.552;13.436;2023-12-14T12:03:18;12.57;;;9.20;;
18983;SDS011;9626;52.552;13.436;2023-12-14T12:05:47;15.47;;;9.47;;
18983;SDS011;9626;52.552;13.436;2023-12-14T12:08:15;11.00;;;8.80;;
18983;SDS011;9626;52.552;13.436;2023-12-14T12:10:44;10.57;;;8.63;;
18983;SDS011;9626;52.552;13.436;2023-12-14T12:13:13;14.87;;;8.43;;
18983;SDS011;9626;52.552;13.436;2023-12-14T12:15:40;9.70;;;8.13;;
18983;SDS011;9626;52.552;13.436;2023-12-14T12:18:07;11.33;;;9.20;;
18983;SDS011;9626;52.552;13.436;2023-12-14T12:20:34;12.33;;;8.63;;
18983;SDS011;9626;52.552;13.436;2023-12-14T12:23:01;10.83;;;7.70;;
18983;SDS011;9626;52.552;13.436;2023-12-14T12:25:29;15.03;;;10.33;;
18983;SDS011;9626;52.552;13.436;2023-12-14T12:27:57;14.20;;;10.17;;
18983;SDS011;9626;52.552;13.436;2023-12-14T12:30:24;11.93;;;9.13;;
18983;SDS011;9626;52.552;13.436;2023-12-14T12:32:50;14.97;;;10.87;;
18983;SDS011;9626;52.552;13.436;2023-12-14T12:35:21;21.57;;;14.10;;
18983;SDS011;9626;52.552;13.436;2023-12-14T12:37:48;16.77;;;12.10;;
18983;SDS011;9626;52.552;13.436;2023-12-14T12:40:22;17.03;;;11.60;;
18983;SDS011;9626;52.552;13.436;2023-12-14T12:42:51;18.57;;;12.93;;
18983;SDS011;9626;52.552;13.436;2023-12-14T12:45:18;15.07;;;13.03;;
18983;SDS011;9626;52.552;13.436;2023-12-14T12:47:44;14.20;;;10.40;;
18983;SDS011;9626;52.552;13.436;2023-12-14T12:50:11;15.03;;;10.80;;
18983;SDS011;9626;52.552;13.436;2023-12-14T12:52:38;12.40;;;9.37;;
18983;SDS011;9626;52.552;13.436;2023-12-14T12:55:05;11.67;;;8.70;;
18983;SDS011;9626;52.552;13.436;2023-12-14T12:57:32;10.30;;;8.67;;
18983;SDS011;9626;52.552;13.436;2023-12-14T12:59:58;12.37;;;8.67;;
18983;SDS011;9626;52.552;13.436;2023-12-14T13:02:24;11.87;;;9.60;;
18983;SDS011;9626;52.552;13.436;2023-12-14T13:04:50;13.07;;;9.97;;
18983;SDS011;9626;52.552;13.436;2023-12-14T13:07:16;14.97;;;10.13;;
18983;SDS011;9626;52.552;13.436;2023-12-14T13:09:43;11.80;;;9.47;;
18983;SDS011;9626;52.552;13.436;2023-12-14T13:12:09;11.40;;;9.23;;
18983;SDS011;9626;52.552;13.436;2023-12-14T13:14:36;11.43;;;8.70;;
18983;SDS011;9626;52.552;13.436;2023-12-14T13:17:02;11.93;;;8.70;;
18983;SDS011;9626;52.552;13.436;2023-12-14T13:19:28;10.80;;;8.80;;
18983;SDS011;9626;52.552;13.436;2023-12-14T13:21:54;11.37;;;9.13;;
18983;SDS011;9626;52.552;13.436;2023-12-14T13:24:23;10.20;;;8.07;;
18983;SDS011;9626;52.552;13.436;2023-12-14T13:26:49;11.47;;;8.67;;
18983;SDS011;9626;52.552;13.436;2023-12-14T13:29:15;11.93;;;9.20;;
18983;SDS011;9626;52.552;13.436;2023-12-14T13:31:41;10.03;;;8.10;;
18983;SDS011;9626;52.552;13.436;2023-12-14T13:34:08;11.80;;;8.47;;
18983;SDS011;9626;52.552;13.436;2023-12-14T13:36:33;12.63;;;9.60;;
18983;SDS011;9626;52.552;13.436;2023-12-14T13:39:00;12.87;;;9.13;;
18983;SDS011;9626;52.552;13.436;2023-12-14T13:41:27;16.23;;;9.60;;
18983;SDS011;9626;52.552;13.436;2023-12-14T13:43:53;15.07;;;11.53;;
18983;SDS011;9626;52.552;13.436;2023-12-14T13:46:19;10.97;;;8.70;;
18983;SDS011;9626;52.552;13.436;2023-12-14T13:48:45;13.53;;;9.63;;
18983;SDS011;9626;52.552;13.436;2023-12-14T13:51:17;13.23;;;8.80;;
18983;SDS011;9626;52.552;13.436;2023-12-14T13:53:43;11.90;;;9.10;;
18983;SDS011;9626;52.552;13.436;2023-12-14T13:56:09;10.93;;;8.33;;
18983;SDS011;9626;52.552;13.436;2023-12-14T13:58:35;11.47;;;8.37;;
18983;SDS011;9626;52.552;13.436;2023-12-14T14:01:04;11.73;;;8.37;;
18983;SDS011;9626;52.552;13.436;2023-12-14T14:03:34;11.50;;;8.07;;
18983;SDS011;9626;52.552;13.436;2023-12-14T14:06:01;15.27;;;9.47;;
18983;SDS011;9626;52.552;13.436;2023-12-14T14:08:28;14.07;;;9.17;;
18983;SDS011;9626;52.552;13.436;2023-12-14T14:10:54;12.50;;;9.00;;
18983;SDS011;9626;52.552;13.436;2023-12-14T14:13:20;14.30;;;10.27;;
18983;SDS011;9626;52.552;13.436;2023-12-14T14:15:47;15.67;;;9.43;;
18983;SDS011;9626;52.552;13.436;2023-12-14T14:18:13;19.20;;;11.83;;
18983;SDS011;9626;52.552;13.436;2023-12-14T14:20:39;18.70;;;12.00;;
18983;SDS011;9626;52.552;13.436;2023-12-14T14:23:05;14.37;;;10.30;;
18983;SDS011;9626;52.552;13.436;2023-12-14T14:25:34;13.47;;;9.93;;
18983;SDS011;9626;52.552;13.436;2023-12-14T14:28:00;13.57;;;9.20;;
18983;SDS011;9626;52.552;13.436;2023-12-14T14:30:27;10.77;;;8.20;;
18983;SDS011;9626;52.552;13.436;2023-12-14T14:32:53;12.17;;;8.60;;
18983;SDS011;9626;52.552;13.436;2023-12-14T14:35:22;12.67;;;7.97;;
18983;SDS011;9626;52.552;13.436;2023-12-14T14:37:51;13.33;;;9.07;;
18983;SDS011;9626;52.552;13.436;2023-12-14T14:40:17;10.30;;;7.63;;
18983;SDS011;9626;52.552;13.436;2023-12-14T14:42:43;9.77;;;7.23;;
18983;SDS011;9626;52.552;13.436;2023-12-14T14:45:10;12.30;;;8.17;;